Terminal Aerodrome Forecast
Issued by NWS

Home | Current Version | Previous Version | Text Only | Print | Product List | Glossary On
Versions: 1 2 3 4 5 6 7 8 9 10 11 12
000
FTUS44 KOUN 251120
TAFPNC
TAF
KPNC 251120Z 2512/2612 17012G18KT P6SM BKN250
     FM251600 19012G18KT P6SM BKN150
     FM252200 35010KT P6SM BKN050
     FM260300 35012G18KT P6SM BKN015 PROB30 2608/2612 4SM -TSRA
      OVC010CB=

USA.gov is the U.S. government's official web portal to all federal, state and local government web resources and services.